Sunday, May 27, 2018, 9:32 AM EDT
Back to Local

KILG, Wilmington New Castle Co

Location: New Castle, DE, United States Lat: 39.667
Local Time: 9:32 AM EDT (13:32 GMT) Lon: -75.6
Time Zone: US/Eastern Elev: 78 ft

Show me the last for .
Show Decoded

2018-05-27 08:51 METAR KILG 271251Z 24005KT 10SM BKN015 OVC021 25/22 A2992 RMK AO2 SLP131
                 T02500222 =
2018-05-27 08:49 METAR KILG 271249Z 25005KT 10SM BKN015 OVC021 24/22 A2992 RMK AO2 LTG DSNT N =
2018-05-27 07:51 METAR KILG 271151Z 27003KT 10SM OVC014 24/22 A2991 RMK AO2 SLP127 60000
                 T02390222 10244 20233 53011 =
2018-05-27 06:51 METAR KILG 271051Z AUTO 24004KT 10SM OVC021 23/22 A2990 RMK AO2 SLP125 T02330217
                 =
2018-05-27 05:51 METAR KILG 270951Z AUTO 22004KT 10SM BKN020 23/21 A2987 RMK AO2 SLP114 T02330211
                 =
2018-05-27 04:51 METAR KILG 270851Z AUTO 20005KT 10SM BKN021 23/21 A2988 RMK AO2 SLP116 60000
                 T02330211 55001 =
2018-05-27 03:51 METAR KILG 270751Z AUTO 19005KT 10SM CLR 23/21 A2987 RMK AO2 SLP113 T02330211 =
2018-05-27 02:51 METAR KILG 270651Z AUTO 22005KT 10SM BKN060 BKN090 BKN120 24/21 A2987 RMK AO2
                 RAE01 SLP115 P0000 T02440211 =
2018-05-27 01:51 METAR KILG 270551Z AUTO 23004KT 10SM -RA FEW070 FEW090 BKN110 24/22 A2988 RMK
                 AO2 RAB32 SLP117 P0000 60000 T02440217 10278 20244 50003 =
2018-05-27 00:51 METAR KILG 270451Z AUTO 24006KT 10SM OVC110 25/22 A2988 RMK AO2 RAE11 SLP118
                 P0000 T02500222 403220200 =
2018-05-26 23:51 METAR KILG 270351Z AUTO 21005KT 10SM -RA FEW040 SCT120 26/22 A2989 RMK AO2 RAB50
                 SLP119 P0000 T02560222 =
2018-05-26 22:51 METAR KILG 270251Z 22004KT 10SM CLR 26/22 A2987 RMK AO2 SLP114 T02610222 51012 =
2018-05-26 21:51 METAR KILG 270151Z 26003KT 10SM CLR 27/22 A2987 RMK AO2 SLP112 T02670222 =
2018-05-26 20:51 METAR KILG 270051Z 23005KT 10SM CLR 27/22 A2985 RMK AO2 SLP106 T02720217 =
2018-05-26 19:51 METAR KILG 262351Z 22006KT 10SM CLR 28/22 A2984 RMK AO2 SLP102 T02780217 10322
                 20278 53014 =
2018-05-26 18:51 METAR KILG 262251Z 22008KT 10SM CLR 29/22 A2982 RMK AO2 LTG DSNT N AND E SLP097
                 T02890217 =
2018-05-26 17:51 METAR KILG 262151Z 24012G16KT 10SM FEW049 31/22 A2981 RMK AO2 LTG DSNT NE SLP092
                 T03060217 =
2018-05-26 16:51 METAR KILG 262051Z 22006KT 10SM FEW050 31/21 A2980 RMK AO2 LTG DSNT N SLP088
                 T03110211 56013 =
2018-05-26 15:51 METAR KILG 261951Z 22009KT 10SM FEW045 32/22 A2980 RMK AO2 SLP089 T03170217 =
2018-05-26 14:51 METAR KILG 261851Z 26008KT 10SM CLR 31/22 A2982 RMK AO2 SLP095 T03110222 =
2018-05-26 13:51 METAR KILG 261751Z 24007KT 10SM CLR 31/22 A2983 RMK AO2 SLP101 T03060222 10306
                 20233 56012 =
2018-05-26 12:51 METAR KILG 261651Z 21005KT 10SM CLR 29/22 A2985 RMK AO2 SLP105 T02940222 =
2018-05-26 11:51 METAR KILG 261551Z 22006KT 10SM CLR 28/22 A2985 RMK AO2 SLP107 T02830222 =
2018-05-26 10:51 METAR KILG 261451Z 00000KT 10SM SCT080 28/21 A2987 RMK AO2 SLP112 T02780211
                 58001 =
2018-05-26 09:51 METAR KILG 261351Z 27007KT 10SM CLR 27/22 A2987 RMK AO2 SLP114 T02670217 =

Support USWX by starting your Amazon purchase here.